Time;durP1;ratioP1;P1;durP2;ratioP2;P2;SDS_P1;SDS_P2;PMS_P1;PMS_P2;Temp;Humidity;BMP_temperature;BMP_pressure;BME280_temperature;BME280_humidity;BME280_pressure;Samples;Min_cycle;Max_cycle;Signal;HPM_P1;HPM_P2
2021/12/04 00:01:25;;;;;;;6.65;6.15;;;2.80;72.70;;;;;;5073734;28;20244;-60
2021/12/04 00:03:53;;;;;;;6.45;6.05;;;2.90;72.50;;;;;;5075095;28;20222;-58
2021/12/04 00:06:24;;;;;;;7.45;6.55;;;2.90;72.80;;;;;;5075076;28;20213;-59
2021/12/04 00:08:51;;;;;;;6.68;6.10;;;2.90;72.90;;;;;;5074792;28;20204;-58
2021/12/04 00:11:18;;;;;;;6.97;6.47;;;2.90;72.90;;;;;;5074942;28;20801;-59
2021/12/04 00:13:45;;;;;;;7.10;6.20;;;3.00;72.80;;;;;;5074857;28;20207;-59
2021/12/04 00:16:13;;;;;;;8.35;5.88;;;3.10;72.10;;;;;;5073438;28;20239;-59
2021/12/04 00:18:39;;;;;;;7.63;7.13;;;3.10;72.20;;;;;;5074724;28;20304;-59
2021/12/04 00:21:08;;;;;;;6.50;6.00;;;3.20;72.20;;;;;;5074775;28;20710;-60
2021/12/04 00:23:36;;;;;;;7.80;7.10;;;3.30;72.20;;;;;;5074524;28;20306;-58
2021/12/04 00:26:04;;;;;;;6.75;6.32;;;3.20;72.30;;;;;;5074680;28;20208;-57
2021/12/04 00:28:31;;;;;;;7.60;7.10;;;3.20;72.10;;;;;;5074333;28;20254;-56
2021/12/04 00:30:58;;;;;;;7.40;6.80;;;3.20;72.20;;;;;;5073067;28;20315;-57
2021/12/04 00:33:30;;;;;;;5.90;5.50;;;3.20;72.30;;;;;;5074439;28;20300;-59
2021/12/04 00:35:59;;;;;;;6.60;6.18;;;3.30;72.40;;;;;;5074192;28;20358;-59
2021/12/04 00:49:26;;;;;;;6.47;6.07;;;3.30;72.70;;;;;;5074100;28;20216;-58
2021/12/04 00:51:54;;;;;;;6.72;6.22;;;3.30;72.80;;;;;;5074022;28;20223;-59
2021/12/04 00:54:24;;;;;;;6.85;6.35;;;3.30;72.70;;;;;;5074768;28;20311;-58
2021/12/04 00:56:52;;;;;;;6.80;6.30;;;3.30;72.90;;;;;;5073792;28;20228;-61
2021/12/04 00:59:20;;;;;;;7.13;6.53;;;3.40;73.10;;;;;;5073918;28;20204;-58
2021/12/04 01:01:47;;;;;;;7.28;6.68;;;3.30;73.40;;;;;;5072442;28;20292;-59
2021/12/04 01:04:16;;;;;;;6.20;5.80;;;3.20;73.70;;;;;;5073892;28;20217;-58
2021/12/04 01:06:44;;;;;;;6.90;6.40;;;3.30;74.00;;;;;;5073701;28;20209;-57
2021/12/04 01:09:13;;;;;;;6.57;6.15;;;3.30;74.20;;;;;;5073617;28;20204;-58
2021/12/04 01:11:43;;;;;;;6.80;6.20;;;3.30;74.60;;;;;;5073573;28;20267;-57
2021/12/04 01:14:11;;;;;;;6.45;6.05;;;3.30;74.80;;;;;;5073698;28;20204;-57
2021/12/04 01:16:38;;;;;;;6.70;6.30;;;3.40;74.90;;;;;;5072339;28;20232;-60
2021/12/04 01:19:05;;;;;;;6.80;6.30;;;3.40;75.20;;;;;;5073771;28;20288;-58
2021/12/04 01:21:32;;;;;;;7.80;7.10;;;3.40;76.00;;;;;;5073519;28;20224;-57
2021/12/04 01:23:59;;;;;;;8.15;7.55;;;3.30;77.10;;;;;;5073314;28;20729;-59
2021/12/04 01:26:26;;;;;;;7.63;7.10;;;3.20;78.40;;;;;;5073351;28;20292;-59
2021/12/04 01:28:55;;;;;;;8.43;7.82;;;3.10;79.90;;;;;;5073465;28;20211;-58
2021/12/04 01:31:22;;;;;;;8.93;8.02;;;3.00;80.60;;;;;;5071978;28;20200;-61
2021/12/04 01:33:49;;;;;;;8.80;8.00;;;2.90;81.20;;;;;;5073035;28;20258;-61
2021/12/04 01:36:16;;;;;;;8.65;7.85;;;2.70;82.70;;;;;;5073422;28;20247;-61
2021/12/04 01:38:43;;;;;;;8.73;8.13;;;2.60;83.60;;;;;;5073367;28;20288;-61
2021/12/04 01:41:10;;;;;;;11.32;10.52;;;2.50;85.20;;;;;;5073441;28;20279;-62
2021/12/04 01:43:38;;;;;;;12.43;11.70;;;2.30;88.20;;;;;;5073263;28;20204;-62
2021/12/04 01:46:06;;;;;;;12.10;11.27;;;2.20;90.40;;;;;;5071856;28;20605;-64
2021/12/04 01:48:33;;;;;;;12.35;11.63;;;2.10;91.60;;;;;;5073146;28;20304;-63
2021/12/04 01:51:00;;;;;;;11.20;10.60;;;2.00;92.20;;;;;;5073302;28;20211;-61
2021/12/04 01:53:29;;;;;;;12.70;11.70;;;2.10;92.60;;;;;;5073066;28;20235;-70
2021/12/04 01:55:57;;;;;;;11.50;10.70;;;2.10;92.90;;;;;;5073071;28;20677;-66
2021/12/04 01:58:26;;;;;;;11.50;10.60;;;2.20;92.60;;;;;;5073296;28;20200;-61
2021/12/04 02:00:53;;;;;;;10.63;10.02;;;2.30;92.60;;;;;;5071930;28;20205;-59
2021/12/04 02:03:22;;;;;;;11.00;10.20;;;2.30;92.40;;;;;;5073012;28;20296;-62
2021/12/04 02:05:51;;;;;;;11.40;10.50;;;2.30;92.50;;;;;;5072820;28;20302;-59
2021/12/04 02:08:20;;;;;;;10.30;9.60;;;2.30;92.70;;;;;;5073203;28;20296;-59
2021/12/04 02:10:48;;;;;;;10.02;9.25;;;2.40;92.50;;;;;;5072691;28;20232;-58
2021/12/04 02:13:16;;;;;;;10.02;9.38;;;2.40;92.40;;;;;;5072914;28;20246;-57
2021/12/04 02:15:43;;;;;;;9.35;8.68;;;2.50;92.10;;;;;;5071518;28;20265;-59
2021/12/04 02:18:12;;;;;;;9.90;8.98;;;2.60;92.00;;;;;;5072776;28;20303;-59
2021/12/04 02:20:40;;;;;;;9.35;8.55;;;2.60;92.10;;;;;;5072790;28;20256;-63
2021/12/04 02:23:10;;;;;;;10.38;9.35;;;2.50;91.90;;;;;;5072774;28;20196;-59
2021/12/04 02:25:38;;;;;;;9.82;9.05;;;2.50;92.00;;;;;;5072806;28;20295;-58
2021/12/04 02:28:07;;;;;;;9.93;9.02;;;2.60;91.70;;;;;;5072789;28;20205;-59
2021/12/04 02:30:37;;;;;;;9.82;8.98;;;2.60;91.30;;;;;;5072235;28;20579;-59
2021/12/04 02:33:11;;;;;;;9.95;9.07;;;2.60;91.30;;;;;;5072635;28;20200;-58
2021/12/04 02:35:39;;;;;;;10.10;9.32;;;2.60;90.90;;;;;;5072659;28;20319;-59
2021/12/04 02:38:06;;;;;;;10.88;9.95;;;2.50;90.60;;;;;;5072726;28;20207;-59
2021/12/04 02:40:33;;;;;;;10.77;9.68;;;2.60;90.70;;;;;;5072572;28;20207;-58
2021/12/04 02:43:00;;;;;;;11.93;10.82;;;2.50;90.20;;;;;;5072826;28;20726;-62
2021/12/04 02:45:27;;;;;;;12.35;11.05;;;2.50;90.10;;;;;;5074034;28;20201;-58
2021/12/04 02:47:54;;;;;;;13.68;11.48;;;2.50;90.00;;;;;;5075179;28;20205;-58
2021/12/04 02:50:21;;;;;;;12.65;11.30;;;2.50;90.30;;;;;;5076459;28;20211;-58
2021/12/04 02:52:49;;;;;;;11.85;10.65;;;2.40;90.20;;;;;;5076326;28;20656;-58
2021/12/04 02:55:18;;;;;;;11.93;10.57;;;2.40;90.30;;;;;;5076300;28;20220;-58
2021/12/04 02:57:45;;;;;;;12.95;11.60;;;2.30;90.30;;;;;;5076145;28;20240;-57
2021/12/04 03:00:16;;;;;;;15.95;11.85;;;2.30;90.60;;;;;;5076267;28;20208;-61
2021/12/04 03:02:42;;;;;;;15.85;12.13;;;2.30;90.60;;;;;;5074847;28;20201;-57
2021/12/04 03:05:11;;;;;;;14.68;13.15;;;2.30;90.70;;;;;;5076143;28;20295;-57
2021/12/04 03:07:38;;;;;;;12.65;11.07;;;2.30;91.10;;;;;;5076384;28;20667;-57
2021/12/04 03:10:08;;;;;;;13.15;11.05;;;2.20;91.30;;;;;;5075946;28;20211;-57
2021/12/04 03:12:35;;;;;;;14.77;11.45;;;2.20;91.80;;;;;;5075836;28;20292;-57
2021/12/04 03:15:03;;;;;;;16.55;11.65;;;2.20;92.00;;;;;;5075917;28;20212;-57
2021/12/04 03:17:30;;;;;;;15.73;11.40;;;2.20;92.10;;;;;;5074553;28;20238;-61
2021/12/04 03:19:57;;;;;;;15.57;11.18;;;2.20;92.20;;;;;;5075928;28;20284;-57
2021/12/04 03:22:24;;;;;;;16.00;11.82;;;2.20;92.10;;;;;;5075783;28;20255;-58
2021/12/04 03:24:52;;;;;;;15.88;11.90;;;2.30;92.30;;;;;;5075744;28;20304;-57
2021/12/04 03:27:20;;;;;;;17.63;13.05;;;2.30;92.30;;;;;;5075703;28;20255;-56
2021/12/04 03:29:52;;;;;;;19.88;12.90;;;2.30;92.20;;;;;;5075805;28;20204;-55
2021/12/04 03:35:22;;;;;;;16.95;11.88;;;2.40;91.90;;;;;;5075747;28;20689;-57
2021/12/04 03:40:38;;;;;;;17.35;12.10;;;2.20;92.50;;;;;;5075604;28;20203;-56
2021/12/04 03:43:09;;;;;;;16.42;11.57;;;2.30;92.50;;;;;;5075423;28;20209;-57
2021/12/04 03:45:37;;;;;;;20.05;11.70;;;2.30;92.60;;;;;;5074961;28;20208;-57
2021/12/04 03:48:09;;;;;;;18.80;11.93;;;2.20;92.70;;;;;;5075208;28;20262;-57
2021/12/04 03:50:36;;;;;;;14.13;10.93;;;2.20;93.00;;;;;;5075292;28;20288;-58
2021/12/04 03:53:03;;;;;;;15.20;11.32;;;2.30;93.10;;;;;;5075289;28;20221;-56
2021/12/04 03:55:30;;;;;;;20.42;12.75;;;2.30;93.20;;;;;;5074867;28;20299;-60
2021/12/04 03:57:57;;;;;;;17.60;11.10;;;2.30;93.00;;;;;;5075128;28;20264;-56
2021/12/04 04:00:28;;;;;;;19.88;13.63;;;2.40;92.90;;;;;;5075122;28;20725;-62
2021/12/04 04:02:56;;;;;;;16.38;11.02;;;2.40;92.90;;;;;;5073665;28;20197;-57
2021/12/04 04:05:23;;;;;;;17.10;11.93;;;2.50;92.90;;;;;;5075152;28;20607;-64
2021/12/04 04:07:50;;;;;;;14.15;10.98;;;2.50;92.90;;;;;;5075076;28;20243;-57
2021/12/04 04:10:17;;;;;;;17.05;11.40;;;2.60;92.80;;;;;;5074860;28;20319;-57
2021/12/04 04:12:44;;;;;;;13.00;9.63;;;2.60;92.80;;;;;;5075112;28;20686;-59
2021/12/04 04:15:11;;;;;;;15.57;10.45;;;2.60;92.90;;;;;;5074827;28;20212;-59
2021/12/04 04:17:43;;;;;;;13.27;10.20;;;2.60;93.30;;;;;;5073438;28;20228;-57
2021/12/04 04:20:11;;;;;;;20.00;11.13;;;2.60;93.50;;;;;;5074829;28;20212;-57
2021/12/04 04:22:38;;;;;;;15.25;9.95;;;2.70;93.40;;;;;;5074719;28;20200;-57
2021/12/04 04:25:06;;;;;;;11.60;10.00;;;2.80;93.40;;;;;;5074627;28;20208;-57
2021/12/04 04:27:33;;;;;;;13.27;8.82;;;2.80;93.10;;;;;;5074500;28;20293;-57
2021/12/04 04:29:59;;;;;;;12.32;9.48;;;2.90;93.20;;;;;;5074586;28;20239;-56
2021/12/04 04:32:26;;;;;;;13.98;10.65;;;2.90;93.10;;;;;;5073221;28;20288;-57
2021/12/04 04:34:56;;;;;;;13.32;11.38;;;2.90;93.00;;;;;;5074418;28;20207;-64
2021/12/04 04:37:30;;;;;;;15.70;9.63;;;2.90;93.00;;;;;;5074365;28;20756;-56
2021/12/04 04:59:37;;;;;;;9.95;8.50;;;3.40;91.90;;;;;;5074102;28;20196;-57
2021/12/04 05:10:41;;;;;;;11.55;8.95;;;3.60;91.70;;;;;;5073532;28;20224;-58
2021/12/04 05:13:10;;;;;;;9.85;8.55;;;3.60;91.60;;;;;;5073737;28;20287;-57
2021/12/04 05:15:42;;;;;;;14.13;9.18;;;3.60;91.40;;;;;;5073298;28;20288;-56
2021/12/04 05:18:21;;;;;;;12.50;9.38;;;3.60;91.70;;;;;;5073469;28;20229;-56
2021/12/04 05:20:53;;;;;;;14.27;9.52;;;3.60;91.40;;;;;;5073638;28;20204;-62
2021/12/04 05:23:23;;;;;;;10.73;8.55;;;3.70;91.40;;;;;;5073516;28;20197;-58
2021/12/04 05:25:50;;;;;;;10.52;8.32;;;3.70;91.60;;;;;;5073400;28;20718;-57
2021/12/04 05:28:17;;;;;;;14.35;9.15;;;3.80;91.50;;;;;;5073422;28;20216;-56
2021/12/04 05:30:44;;;;;;;11.55;8.48;;;3.80;91.20;;;;;;5072127;28;20295;-64
2021/12/04 05:33:11;;;;;;;10.27;7.32;;;3.70;91.30;;;;;;5073392;28;20219;-58
2021/12/04 05:35:38;;;;;;;9.75;8.00;;;3.70;91.60;;;;;;5073270;28;20201;-58
2021/12/04 05:38:05;;;;;;;9.38;7.55;;;3.80;91.60;;;;;;5073197;28;20233;-58
2021/12/04 05:40:33;;;;;;;9.48;7.43;;;3.80;91.60;;;;;;5073156;28;20270;-64
2021/12/04 05:43:02;;;;;;;8.18;6.50;;;3.80;91.90;;;;;;5073234;28;20292;-56
2021/12/04 05:45:31;;;;;;;8.93;7.70;;;3.90;92.00;;;;;;5073217;28;20200;-58
2021/12/04 05:48:02;;;;;;;11.38;7.18;;;3.90;91.90;;;;;;5071796;28;20201;-57
2021/12/04 05:50:52;;;;;;;8.25;7.18;;;4.00;91.80;;;;;;5073172;28;20224;-71
2021/12/04 05:53:22;;;;;;;13.05;7.55;;;4.00;91.70;;;;;;5073031;28;20315;-61
2021/12/04 05:55:53;;;;;;;9.70;7.18;;;4.10;91.70;;;;;;5073120;28;20305;-58
2021/12/04 05:58:25;;;;;;;9.60;8.05;;;4.00;91.60;;;;;;5073012;28;20232;-59
2021/12/04 06:00:52;;;;;;;10.35;6.40;;;4.00;91.70;;;;;;5071794;28;20207;-68
2021/12/04 06:03:20;;;;;;;12.30;7.43;;;4.00;91.80;;;;;;5073069;28;20261;-58
2021/12/04 06:05:47;;;;;;;12.05;6.88;;;4.10;91.90;;;;;;5073013;28;20232;-58
2021/12/04 06:08:14;;;;;;;10.27;6.78;;;4.10;91.80;;;;;;5072982;28;20697;-62
2021/12/04 06:10:41;;;;;;;10.13;7.90;;;4.10;91.80;;;;;;5073019;28;20239;-58
2021/12/04 06:13:10;;;;;;;10.10;7.25;;;4.10;92.10;;;;;;5072944;28;20566;-58
2021/12/04 06:15:37;;;;;;;8.77;7.78;;;4.20;92.10;;;;;;5072570;28;20289;-64
2021/12/04 06:18:04;;;;;;;7.80;6.07;;;4.20;92.10;;;;;;5071954;28;20275;-59
2021/12/04 06:23:15;;;;;;;5.18;4.78;;;4.20;92.30;;;;;;5077315;28;20780;-56
2021/12/04 06:25:42;;;;;;;5.47;5.07;;;4.20;92.70;;;;;;5076989;28;20214;-58
2021/12/04 06:28:10;;;;;;;3.85;3.55;;;4.10;93.50;;;;;;5076908;28;20352;-57
2021/12/04 06:30:39;;;;;;;3.30;3.08;;;4.10;94.10;;;;;;5076317;28;20201;-56
2021/12/04 06:33:07;;;;;;;2.83;2.63;;;4.00;94.60;;;;;;5076357;28;20238;-60
2021/12/04 06:35:39;;;;;;;4.03;2.90;;;4.10;95.20;;;;;;5076817;28;20232;-69
2021/12/04 06:38:06;;;;;;;2.95;2.83;;;4.10;95.50;;;;;;5076629;28;20246;-56
2021/12/04 06:40:33;;;;;;;2.13;2.03;;;4.20;95.50;;;;;;5076674;28;20295;-58
2021/12/04 06:43:00;;;;;;;2.53;2.42;;;4.20;95.90;;;;;;5076682;28;20200;-60
2021/12/04 06:45:30;;;;;;;2.58;2.47;;;4.10;96.20;;;;;;5076563;28;20299;-59
2021/12/04 06:47:59;;;;;;;2.72;2.53;;;4.10;96.30;;;;;;5075230;28;20228;-60
2021/12/04 06:50:35;;;;;;;2.60;2.50;;;4.10;96.30;;;;;;5076461;28;20555;-81
2021/12/04 06:53:09;;;;;;;2.50;2.40;;;4.10;96.30;;;;;;5076424;28;20220;-61
2021/12/04 06:55:40;;;;;;;2.35;2.25;;;4.20;96.30;;;;;;5076309;28;20571;-59
2021/12/04 06:58:07;;;;;;;2.60;2.50;;;4.30;96.30;;;;;;5076332;28;20264;-65
2021/12/04 07:00:36;;;;;;;2.97;2.78;;;4.30;96.30;;;;;;5076223;28;20211;-58
2021/12/04 07:03:03;;;;;;;2.40;2.30;;;4.30;96.30;;;;;;5075369;28;20292;-63
2021/12/04 07:05:30;;;;;;;2.25;2.15;;;4.40;96.30;;;;;;5076191;28;20207;-59
2021/12/04 07:07:57;;;;;;;2.45;2.35;;;4.40;96.30;;;;;;5076366;28;20773;-58
2021/12/04 07:10:24;;;;;;;2.33;2.22;;;4.40;96.30;;;;;;5076026;28;20262;-58
2021/12/04 07:12:51;;;;;;;2.83;2.72;;;4.50;96.30;;;;;;5076009;28;20295;-57
2021/12/04 07:15:18;;;;;;;1.83;1.73;;;4.50;96.30;;;;;;5075970;28;20295;-58
2021/12/04 07:17:46;;;;;;;2.03;1.92;;;4.50;96.30;;;;;;5074580;28;20237;-56
2021/12/04 07:20:13;;;;;;;2.90;2.50;;;4.60;96.30;;;;;;5076167;28;20295;-58
2021/12/04 07:22:40;;;;;;;2.45;2.35;;;4.60;96.30;;;;;;5075817;28;20292;-59
2021/12/04 07:25:07;;;;;;;2.60;2.50;;;4.60;96.30;;;;;;5075781;28;20295;-57
2021/12/04 07:27:35;;;;;;;2.15;2.05;;;4.60;96.30;;;;;;5075733;28;20207;-59
2021/12/04 07:30:03;;;;;;;2.10;2.00;;;4.60;96.30;;;;;;5075563;28;20302;-61
2021/12/04 07:32:30;;;;;;;1.80;1.70;;;4.70;96.30;;;;;;5074004;28;20630;-62
2021/12/04 07:34:58;;;;;;;2.38;2.28;;;4.70;96.30;;;;;;5075720;28;20211;-56
2021/12/04 07:37:25;;;;;;;2.35;2.25;;;4.70;96.30;;;;;;5075470;28;20228;-60
2021/12/04 07:39:53;;;;;;;2.70;2.60;;;4.70;96.30;;;;;;5075591;28;20201;-59
2021/12/04 07:42:20;;;;;;;3.20;3.00;;;4.70;96.30;;;;;;5075520;28;20283;-57
2021/12/04 07:44:47;;;;;;;2.75;2.60;;;4.70;96.30;;;;;;5075485;28;20575;-67
2021/12/04 07:47:14;;;;;;;2.65;2.55;;;4.70;96.30;;;;;;5074266;28;20211;-58
2021/12/04 07:49:41;;;;;;;2.80;2.70;;;4.70;96.30;;;;;;5075477;28;20232;-59
2021/12/04 07:52:10;;;;;;;2.80;2.70;;;4.70;96.30;;;;;;5075142;28;20251;-61
2021/12/04 07:54:38;;;;;;;3.20;3.00;;;4.80;96.30;;;;;;5075307;28;20640;-59
2021/12/04 07:57:05;;;;;;;3.00;2.80;;;4.80;96.30;;;;;;5075261;28;20287;-59
2021/12/04 07:59:32;;;;;;;2.50;2.40;;;4.70;96.30;;;;;;5075265;28;20200;-63
2021/12/04 08:01:59;;;;;;;2.58;2.47;;;4.80;96.30;;;;;;5074038;28;20570;-59
2021/12/04 08:04:27;;;;;;;2.85;2.65;;;4.90;96.30;;;;;;5075054;28;20205;-59
2021/12/04 08:06:54;;;;;;;3.10;2.88;;;4.90;96.30;;;;;;5075221;28;20255;-58
2021/12/04 08:09:28;;;;;;;2.70;2.60;;;4.90;96.30;;;;;;5075044;28;20288;-59
2021/12/04 08:11:56;;;;;;;2.50;2.40;;;4.90;96.30;;;;;;5075208;28;20239;-62
2021/12/04 08:14:23;;;;;;;2.25;2.15;;;4.90;96.30;;;;;;5074932;28;20590;-59
2021/12/04 08:16:50;;;;;;;2.70;2.60;;;4.90;96.30;;;;;;5073503;28;20758;-57
2021/12/04 08:19:16;;;;;;;4.32;2.60;;;4.90;96.30;;;;;;5074815;28;20234;-59
2021/12/04 08:21:43;;;;;;;2.63;2.53;;;4.90;96.30;;;;;;5074723;28;20296;-57
2021/12/04 08:24:10;;;;;;;2.58;2.42;;;4.90;96.30;;;;;;5074725;28;20728;-57
2021/12/04 08:26:39;;;;;;;2.30;2.20;;;5.00;96.30;;;;;;5074644;28;20295;-59
2021/12/04 08:29:07;;;;;;;3.08;2.78;;;5.10;96.30;;;;;;5074611;28;20295;-59
2021/12/04 08:31:35;;;;;;;5.32;2.50;;;5.10;96.30;;;;;;5073280;28;20207;-60
2021/12/04 08:34:02;;;;;;;2.60;2.50;;;5.00;96.30;;;;;;5074546;28;20209;-59
2021/12/04 08:36:29;;;;;;;2.70;2.50;;;5.10;96.30;;;;;;5074447;28;20205;-57
2021/12/04 08:38:56;;;;;;;2.40;2.20;;;5.10;96.30;;;;;;5074294;28;20228;-59
2021/12/04 08:41:23;;;;;;;2.45;1.90;;;5.10;96.30;;;;;;5074303;28;20639;-57
2021/12/04 08:43:53;;;;;;;2.50;2.30;;;5.10;96.30;;;;;;5074313;28;20299;-59
2021/12/04 08:46:20;;;;;;;2.13;2.03;;;5.20;96.30;;;;;;5072835;28;20276;-59
2021/12/04 08:48:48;;;;;;;2.50;2.40;;;5.20;96.30;;;;;;5074255;28;20559;-57
2021/12/04 08:51:16;;;;;;;2.75;2.55;;;5.20;96.30;;;;;;5073986;28;20227;-61
2021/12/04 08:53:43;;;;;;;2.33;2.22;;;5.30;96.30;;;;;;5074128;28;20683;-58
2021/12/04 08:56:10;;;;;;;3.28;2.85;;;5.30;96.30;;;;;;5074076;28;20196;-57
2021/12/04 08:58:40;;;;;;;2.75;2.55;;;5.30;96.30;;;;;;5073964;28;20603;-59
2021/12/04 09:01:12;;;;;;;2.60;2.40;;;5.20;96.30;;;;;;5072710;28;20204;-61
2021/12/04 09:03:42;;;;;;;2.70;2.60;;;5.30;96.30;;;;;;5074010;28;20204;-59
2021/12/04 09:06:09;;;;;;;2.58;2.35;;;5.30;96.30;;;;;;5073920;28;20281;-57
2021/12/04 09:08:36;;;;;;;4.35;2.50;;;5.30;96.30;;;;;;5073775;28;20197;-62
2021/12/04 09:11:08;;;;;;;2.33;2.22;;;5.30;96.30;;;;;;5073691;28;20327;-61
2021/12/04 09:13:36;;;;;;;2.72;2.50;;;5.30;96.30;;;;;;5073702;28;20685;-60
2021/12/04 09:16:04;;;;;;;2.53;2.33;;;5.30;96.30;;;;;;5072367;28;20345;-61
2021/12/04 09:18:32;;;;;;;2.33;2.13;;;5.30;96.30;;;;;;5073555;28;20716;-59
2021/12/04 09:20:59;;;;;;;3.30;3.00;;;5.40;96.30;;;;;;5073732;28;20342;-60
2021/12/04 09:23:31;;;;;;;2.38;2.17;;;5.40;96.30;;;;;;5073527;28;20673;-62
2021/12/04 09:26:01;;;;;;;2.80;2.60;;;5.50;96.30;;;;;;5073396;28;20205;-57
2021/12/04 09:28:37;;;;;;;2.45;2.35;;;5.50;96.30;;;;;;5073506;28;20224;-59
2021/12/04 10:01:36;;;;;;;2.63;2.53;;;6.00;96.30;;;;;;5071538;28;20208;-62
2021/12/04 10:18:26;;;;;;;2.50;2.40;;;6.40;96.30;;;;;;5089559;28;20192;-58
2021/12/04 10:21:12;;;;;;;2.30;2.20;;;6.50;96.30;;;;;;5090240;28;20208;-59
2021/12/04 10:34:44;;;;;;;2.35;2.15;;;6.90;96.30;;;;;;5063820;28;20204;-60
2021/12/04 10:37:17;;;;;;;2.78;2.40;;;7.00;96.30;;;;;;5089946;28;20302;-61
2021/12/04 10:39:45;;;;;;;3.50;2.60;;;7.00;96.30;;;;;;5089971;28;20273;-58
2021/12/04 10:42:15;;;;;;;2.40;2.30;;;7.00;96.30;;;;;;5089847;28;20203;-60
2021/12/04 10:44:49;;;;;;;2.38;2.28;;;7.00;96.30;;;;;;5089838;28;20196;-68
2021/12/04 10:47:22;;;;;;;2.58;2.38;;;7.00;96.30;;;;;;5088362;28;20223;-58
2021/12/04 10:49:56;;;;;;;2.05;1.90;;;7.10;96.30;;;;;;5089698;28;20674;-57
2021/12/04 10:52:32;;;;;;;2.67;2.50;;;7.10;96.30;;;;;;5069459;28;20200;-62
2021/12/04 10:55:15;;;;;;;2.17;2.08;;;7.20;96.30;;;;;;5069361;28;20212;-64
2021/12/04 11:00:37;;;;;;;2.50;2.30;;;7.20;96.30;;;;;;5066543;28;20195;-69
2021/12/04 11:03:17;;;;;;;2.58;2.38;;;7.30;96.30;;;;;;5068375;28;20216;-59
2021/12/04 11:06:15;;;;;;;2.30;2.20;;;7.30;96.30;;;;;;5068924;28;20624;-57
2021/12/04 11:22:39;;;;;;;2.72;2.63;;;7.60;96.30;;;;;;5050215;28;20197;-59
2021/12/04 11:25:36;;;;;;;2.50;2.40;;;7.70;96.30;;;;;;5055536;28;20221;-59
2021/12/04 11:28:25;;;;;;;2.75;2.58;;;7.80;96.30;;;;;;5055519;28;20197;-56
2021/12/04 11:36:35;;;;;;;2.58;2.42;;;7.80;96.30;;;;;;5055412;28;20667;-62
2021/12/04 11:39:25;;;;;;;2.70;2.60;;;7.90;96.30;;;;;;5055336;28;20220;-60
2021/12/04 11:42:06;;;;;;;2.78;2.67;;;7.90;96.30;;;;;;5055327;28;20618;-61
2021/12/04 11:44:48;;;;;;;2.65;2.55;;;8.00;96.30;;;;;;5055213;28;20231;-64
2021/12/04 11:47:15;;;;;;;2.28;2.17;;;8.00;96.30;;;;;;5053906;28;20220;-58
2021/12/04 11:49:42;;;;;;;2.58;2.40;;;8.10;96.30;;;;;;5054974;28;20211;-63
2021/12/04 11:52:14;;;;;;;2.50;2.40;;;8.10;96.00;;;;;;5055081;28;20212;-58
2021/12/04 11:54:47;;;;;;;2.30;2.20;;;8.00;95.60;;;;;;5054958;28;20202;-59
2021/12/04 11:57:17;;;;;;;2.30;2.20;;;8.00;95.80;;;;;;5054953;28;20212;-58
2021/12/04 11:59:47;;;;;;;2.75;2.55;;;8.10;95.80;;;;;;5054886;28;20205;-60
2021/12/04 12:02:21;;;;;;;2.60;2.50;;;8.10;95.70;;;;;;5053519;28;20296;-59
2021/12/04 12:04:51;;;;;;;2.80;2.63;;;8.20;95.20;;;;;;5054732;28;20267;-60
2021/12/04 12:07:20;;;;;;;2.90;2.80;;;8.20;94.90;;;;;;5054776;28;20228;-59
2021/12/04 12:09:49;;;;;;;2.70;2.60;;;8.20;94.80;;;;;;5054859;28;20284;-60
2021/12/04 12:12:17;;;;;;;2.60;2.50;;;8.20;94.90;;;;;;5054968;28;20205;-59
2021/12/04 12:14:50;;;;;;;2.70;2.60;;;8.20;94.50;;;;;;5054704;28;20209;-59
2021/12/04 12:17:28;;;;;;;2.80;2.70;;;8.30;94.60;;;;;;5053407;28;20576;-58
2021/12/04 12:19:56;;;;;;;2.53;2.42;;;8.20;94.40;;;;;;5054594;28;20240;-60
2021/12/04 12:22:31;;;;;;;2.80;2.60;;;8.20;94.60;;;;;;5054542;28;20648;-58
2021/12/04 12:25:17;;;;;;;2.67;2.58;;;8.30;95.00;;;;;;5054573;28;20308;-60
2021/12/04 12:27:54;;;;;;;2.70;2.60;;;8.20;95.10;;;;;;5054231;28;20205;-59
2021/12/04 12:33:21;;;;;;;2.20;2.10;;;8.30;95.60;;;;;;5054366;28;20205;-59
2021/12/04 12:36:03;;;;;;;2.55;2.35;;;8.30;95.50;;;;;;5054143;28;20615;-62
2021/12/04 12:38:53;;;;;;;2.08;1.98;;;8.30;95.60;;;;;;5054220;28;20209;-58
2021/12/04 12:41:28;;;;;;;2.42;2.33;;;8.30;95.70;;;;;;5051344;28;20208;-59
2021/12/04 12:44:09;;;;;;;2.40;2.30;;;8.30;95.60;;;;;;5054082;28;20292;-58
2021/12/04 12:46:40;;;;;;;2.30;2.20;;;8.30;95.60;;;;;;5052749;28;20233;-61
2021/12/04 12:49:20;;;;;;;2.20;2.10;;;8.30;95.80;;;;;;5053915;28;20197;-59
2021/12/04 12:51:55;;;;;;;2.10;2.00;;;8.30;96.20;;;;;;5053837;28;20770;-60
2021/12/04 12:54:29;;;;;;;1.83;1.73;;;8.30;96.30;;;;;;5053900;28;20223;-59
2021/12/04 12:57:02;;;;;;;2.10;2.00;;;8.20;96.30;;;;;;5053897;28;20296;-59
2021/12/04 12:59:42;;;;;;;1.80;1.70;;;8.20;96.30;;;;;;5053782;28;20656;-58
2021/12/04 13:13:27;;;;;;;2.17;1.88;;;8.40;96.00;;;;;;5053309;28;20204;-58
2021/12/04 13:16:00;;;;;;;1.92;1.83;;;8.40;95.80;;;;;;5052130;28;20292;-57
2021/12/04 13:18:30;;;;;;;1.50;1.40;;;8.40;95.90;;;;;;5053410;28;20721;-61
2021/12/04 13:21:02;;;;;;;1.80;1.70;;;8.40;95.50;;;;;;5053230;28;20205;-59
2021/12/04 13:23:29;;;;;;;1.70;1.60;;;8.30;95.30;;;;;;5053502;28;20209;-60
2021/12/04 13:25:59;;;;;;;1.67;1.58;;;8.40;95.60;;;;;;5053205;28;20308;-59
2021/12/04 13:28:28;;;;;;;1.30;1.20;;;8.30;94.90;;;;;;5053296;28;20732;-60
2021/12/04 13:30:56;;;;;;;1.50;1.40;;;8.30;95.10;;;;;;5051926;28;20300;-58
2021/12/04 13:33:23;;;;;;;1.50;1.40;;;8.30;95.50;;;;;;5053269;28;20219;-60
2021/12/04 13:35:51;;;;;;;1.60;1.50;;;8.30;95.30;;;;;;5053203;28;20216;-58
2021/12/04 13:38:22;;;;;;;1.50;1.40;;;8.40;95.20;;;;;;5053061;28;20209;-58
2021/12/04 13:40:55;;;;;;;1.70;1.33;;;8.40;95.00;;;;;;5052855;28;20209;-59
2021/12/04 13:43:24;;;;;;;2.67;1.75;;;8.40;95.20;;;;;;5053136;28;20255;-61
2021/12/04 13:45:57;;;;;;;1.40;1.30;;;8.40;95.00;;;;;;5051608;28;20719;-60
2021/12/04 13:48:25;;;;;;;1.60;1.50;;;8.40;94.90;;;;;;5053012;28;20212;-60
2021/12/04 13:50:55;;;;;;;1.55;1.45;;;8.40;94.80;;;;;;5052750;28;20222;-59
2021/12/04 13:53:27;;;;;;;1.67;1.58;;;8.30;95.00;;;;;;5052986;28;20224;-61
2021/12/04 13:55:57;;;;;;;2.28;1.80;;;8.30;95.30;;;;;;5052897;28;20213;-60
2021/12/04 13:58:24;;;;;;;1.40;1.30;;;8.30;95.40;;;;;;5052949;28;20237;-59
2021/12/04 14:00:52;;;;;;;2.10;2.00;;;8.20;95.70;;;;;;5051544;28;20201;-63
2021/12/04 14:03:23;;;;;;;2.00;1.90;;;8.10;96.30;;;;;;5052786;28;20284;-62
2021/12/04 14:05:51;;;;;;;2.38;2.28;;;8.00;96.30;;;;;;5052529;28;20589;-61
2021/12/04 14:08:19;;;;;;;2.10;2.00;;;7.90;96.30;;;;;;5052814;28;20636;-61
2021/12/04 14:10:49;;;;;;;2.83;2.60;;;7.90;96.30;;;;;;5052864;28;20202;-59
2021/12/04 14:13:19;;;;;;;3.75;2.40;;;7.80;96.30;;;;;;5052871;28;20288;-60
2021/12/04 14:15:47;;;;;;;2.50;2.40;;;7.80;96.30;;;;;;5051411;28;20255;-59
2021/12/04 14:18:16;;;;;;;2.53;2.42;;;7.90;96.30;;;;;;5052633;28;20295;-59
2021/12/04 14:20:45;;;;;;;2.65;2.45;;;7.90;96.30;;;;;;5052662;28;20664;-62
2021/12/04 14:23:13;;;;;;;2.65;2.45;;;7.90;96.30;;;;;;5052696;28;20205;-59
2021/12/04 14:25:46;;;;;;;2.33;2.17;;;7.90;96.30;;;;;;5052622;28;20292;-59
2021/12/04 14:28:15;;;;;;;3.47;2.42;;;7.80;96.30;;;;;;5052581;28;20205;-58
2021/12/04 14:30:45;;;;;;;3.35;3.05;;;7.90;96.30;;;;;;5051697;28;20201;-58
2021/12/04 14:33:15;;;;;;;3.20;2.90;;;7.90;96.30;;;;;;5052646;28;20213;-60
2021/12/04 14:35:45;;;;;;;3.10;2.80;;;8.00;96.30;;;;;;5052426;28;20201;-58
2021/12/04 14:38:16;;;;;;;3.08;2.88;;;8.00;96.30;;;;;;5052534;28;20319;-56
2021/12/04 14:40:46;;;;;;;2.50;2.25;;;8.10;96.30;;;;;;5052482;28;20205;-57
2021/12/04 14:43:15;;;;;;;2.40;2.30;;;8.00;96.30;;;;;;5052413;28;20655;-59
2021/12/04 14:45:47;;;;;;;2.47;2.30;;;8.00;96.30;;;;;;5051479;28;20288;-60
2021/12/04 14:48:18;;;;;;;3.65;2.97;;;7.90;96.30;;;;;;5052488;28;20228;-59
2021/12/04 14:50:47;;;;;;;2.60;2.40;;;7.90;96.30;;;;;;5052461;28;20288;-60
2021/12/04 14:53:17;;;;;;;2.80;2.60;;;7.90;96.30;;;;;;5055261;28;20201;-60
2021/12/04 14:55:48;;;;;;;4.10;3.72;;;7.80;96.30;;;;;;5056127;28;20292;-61
2021/12/04 14:58:17;;;;;;;2.83;2.63;;;7.80;96.30;;;;;;5056176;28;20298;-60
2021/12/04 15:00:46;;;;;;;3.00;2.10;;;7.80;96.30;;;;;;5055214;28;20652;-59
2021/12/04 15:03:16;;;;;;;7.35;2.70;;;7.80;96.30;;;;;;5056015;28;20206;-60
2021/12/04 15:05:45;;;;;;;2.90;2.70;;;7.80;96.30;;;;;;5055859;28;20328;-64
2021/12/04 15:08:14;;;;;;;2.08;1.98;;;7.80;96.30;;;;;;5055877;28;20209;-60
2021/12/04 15:10:43;;;;;;;2.25;2.15;;;7.80;96.30;;;;;;5055831;28;20216;-60
2021/12/04 15:13:20;;;;;;;2.75;2.58;;;7.80;96.30;;;;;;5055859;28;20301;-69
2021/12/04 15:15:48;;;;;;;2.35;2.20;;;7.80;96.30;;;;;;5054414;28;20288;-57
2021/12/04 15:18:16;;;;;;;2.83;2.70;;;7.80;96.30;;;;;;5055774;28;20237;-59
2021/12/04 15:20:55;;;;;;;2.28;2.17;;;7.70;96.30;;;;;;5055603;28;20205;-61
2021/12/04 15:23:25;;;;;;;2.58;2.45;;;7.70;96.30;;;;;;5055691;28;20651;-60
2021/12/04 15:25:55;;;;;;;2.67;2.47;;;7.70;96.30;;;;;;5055522;28;20223;-60